Weather at Cypress Creek Airpark

Public forecast

Using degrees Fahrenheit for public forecast. Weather courtesy of forecast.io.

Closest aviation weather report (METAR) to Cypress Creek Airpark

Closest report is Little Rock Air Force Base, 8.8 nm (16.3 km) S. Retrieved 2021/06/25 02:56 UTC (56 minutes ago):

KLRF 250256Z AUTO 17005KT 10SM CLR 29/23 A2994 RMK AO2 SLP138 T02910233 50000

Closest aviation forecast (TAF) to Cypress Creek Airpark

Closest forecast is Little Rock Air Force Base, 8.8 nm (16.3 km) S. Retrieved 2021-06-25 23:54 UTC (0 seconds ago):

TAF KLRF 242300Z 2423/2605 16009KT 9999 SCT050 QNH2987INS BECMG 2510/2511 18006KT 9999 BKN020 QNH2998INS BECMG 2513/2514 19010G15KT 9999 BKN020 QNH2994INS BECMG 2518/2519 19009KT 9999 SCT050 QNH2983INS TX37/2520Z TN26/2510Z